• Join FlightAware (Why Join?)
  • Login
  • US Flag 
04:12AM EDT


 

Airport Tracker/Info


-or-


 

Live Flight TrackerFlight Track Log ✈ ASQ6041 ✈ 24-Apr-2013 ✈ KBHM - KORD

Flight Track Log - Related Links

Times and Time Zones

All times are in EDT time to prevent confusion due to time zone crossing. See the ASQ6041 flight status page for this flight to view local times or setup timezone preferences in your user account.

Time Position Orientation Groundspeed Altitude Reporting Facility
EDT Latitude Longitude Course Direction KTS MPH feet Rate Location/Type
07:07AM 33.5531 -86.7733 245° Southwest 146 168 1,300  Level Atlanta Center
07:08AM 33.5353 -86.8200 245° Southwest 164 189 2,800 2,100 Climbing Atlanta Center
07:09AM 33.5742 -86.8611 319° Northwest 173 199 5,600 2,220 Climbing Atlanta Center
07:10AM 33.6336 -86.8158 32° Northeast 149 171 7,300 1,560 Climbing Atlanta Center
07:11AM 33.6917 -86.7428 46° Northeast 227 261 8,800 1,620 Climbing Atlanta Center
07:12AM 33.7536 -86.6697 44° Northeast 263 303 10,600 1,320 Climbing Atlanta Center
07:13AM 33.8200 -86.5867 46° Northeast 308 354 11,500 900 Climbing Atlanta Center
07:14AM 33.8950 -86.4939 46° Northeast 354 407 12,500 1,080 Climbing Atlanta Center
07:15AM 33.9719 -86.4008 45° Northeast 375 432 13,700 1,200 Climbing Atlanta Center
07:16AM 34.0489 -86.3053 46° Northeast 387 445 15,000 1,140 Climbing Atlanta Center
07:17AM 34.1258 -86.2069 47° Northeast 392 451 16,000 960 Climbing Atlanta Center
07:18AM 34.2069 -86.1061 46° Northeast 392 451 17,000 960 Climbing Atlanta Center
07:19AM 34.2856 -86.0097 45° Northeast 397 457 18,000 1,140 Climbing Atlanta Center
07:20AM 34.3686 -85.9061 46° Northeast 402 463 19,300 1,260 Climbing Atlanta Center
07:21AM 34.4475 -85.8069 46° Northeast 407 468 20,600 1,200 Climbing Atlanta Center
07:22AM 34.5303 -85.7056 45° Northeast 407 468 21,800 1,200 Climbing Atlanta Center
07:23AM 34.6108 -85.6011 47° Northeast 413 475 23,000 1,200 Climbing Atlanta Center
07:24AM 34.6914 -85.4989 46° Northeast 413 475 24,300 1,200 Climbing Atlanta Center
07:25AM 34.7739 -85.3942 46° Northeast 420 483 25,500 1,200 Climbing Atlanta Center
07:26AM 34.8544 -85.2917 46° Northeast 420 483 26,700 1,200 Climbing Atlanta Center
07:27AM 34.9367 -85.1864 46° Northeast 420 483 27,900 1,200 Climbing Atlanta Center
07:28AM 35.0353 -85.1372 22° Northeast 394 453 29,100 1,200 Climbing Atlanta Center
07:29AM 35.1400 -85.1081 13° North 374 430 30,300 1,200 Climbing Atlanta Center
07:30AM 35.2403 -85.0839 11° North 374 430 31,500 1,200 Climbing Atlanta Center
07:31AM 35.3428 -85.0572 12° North 374 430 32,800 1,200 Climbing Atlanta Center
07:32AM 35.4450 -85.0331 11° North 369 425 34,000 1,200 Climbing Atlanta Center
07:33AM 35.5433 -85.0086 11° North 369 425 35,200 960 Climbing Atlanta Center
07:34AM 35.6375 -84.9842 12° North 359 413 36,000 360 Climbing Atlanta Center
07:35AM 35.7314 -84.9622 11° North 354 407 36,000  Level Atlanta Center
07:36AM 35.8403 -84.9303 13° North 372 428 36,000  Level Atlanta Center
07:37AM 35.9594 -84.9006 11° North 392 451 36,000  Level Atlanta Center
07:39AM 36.2186 -84.8328 12° North 430 495 36,000  Level Indianapolis Center
07:40AM 36.3403 -84.8011 12° North 443 510 36,000  Level Indianapolis Center
07:41AM 36.4650 -84.7681 12° North 455 524 36,000  Level Indianapolis Center
07:42AM 36.6158 -84.7228 14° North 464 534 36,000  Level Indianapolis Center
07:43AM 36.7411 -84.6856 13° North 463 533 36,000  Level Indianapolis Center
07:44AM 36.8669 -84.6483 13° North 463 533 36,000  Level Indianapolis Center
07:45AM 36.9925 -84.6114 13° North 464 534 36,000  Level Indianapolis Center
07:46AM 37.1117 -84.5758 13° North 463 533 36,000  Level Indianapolis Center
07:47AM 37.2369 -84.5381 13° North 461 531 36,000  Level Indianapolis Center
07:48AM 37.3819 -84.4958 13° North 457 526 36,000  Level Indianapolis Center
07:49AM 37.5056 -84.4581 14° North 456 525 36,000  Level Indianapolis Center
07:50AM 37.6303 -84.4208 13° North 458 527 36,000  Level Indianapolis Center
07:51AM 37.7544 -84.3972 North 447 514 36,000  Level Indianapolis Center
07:52AM 37.8631 -84.4389 343° North 412 474 36,000  Level Indianapolis Center
07:53AM 37.9717 -84.4878 340° North 412 474 36,000 -120 Level Indianapolis Center
07:54AM 38.0811 -84.5431 338° Northwest 421 484 35,800 -540 Descending Indianapolis Center
07:56AM 38.1972 -84.5914 342° North 434 499 34,900 -900 Descending Indianapolis Center
07:57AM 38.3106 -84.6439 340° North 433 498 34,000 -480 Descending Indianapolis Center
07:58AM 38.4422 -84.7033 341° North 430 495 34,000  Level Indianapolis Center
07:59AM 38.5553 -84.7564 340° North 431 496 34,000  Level Indianapolis Center
08:00AM 38.6578 -84.8044 340° North 431 496 34,000  Level Indianapolis Center
08:01AM 38.7708 -84.8581 340° North 431 496 34,000  Level Indianapolis Center
08:02AM 38.8875 -84.9108 341° North 439 505 34,000 -180 Level Indianapolis Center
08:03AM 39.0203 -84.9733 340° North 434 499 33,700 -600 Descending Indianapolis Center
08:04AM 39.1336 -85.0278 340° North 430 495 32,800 -1,200 Descending Indianapolis Center
08:05AM 39.2489 -85.0803 341° North 436 502 31,300 -1,440 Descending Indianapolis Center
08:06AM 39.3619 -85.1339 340° North 433 498 29,900 -1,560 Descending Indianapolis Center
08:07AM 39.4761 -85.1875 340° North 434 499 28,200 -960 Descending Indianapolis Center
08:08AM 39.5939 -85.2444 340° North 446 513 28,000 -120 Descending Indianapolis Center
08:09AM 39.7131 -85.3003 340° North 453 521 28,000 -360 Level Indianapolis Center
08:10AM 39.8342 -85.3586 340° North 460 529 27,300 -960 Descending Indianapolis Center
08:11AM 39.9761 -85.4278 340° North 464 534 26,100 -660 Descending Indianapolis Center
08:12AM 40.1011 -85.4875 340° North 473 544 26,000 -120 Descending Indianapolis Center
08:13AM 40.1614 -85.5167 340° North 471 542 26,000 -360 Level Chicago Center
08:14AM 40.3025 -85.5836 340° North 464 534 25,400 -840 Descending Chicago Center
08:15AM 40.4267 -85.6450 339° North 472 543 24,300 -720 Descending Chicago Center
08:16AM 40.5522 -85.7017 341° North 476 548 24,000 -300 Descending Chicago Center
08:17AM 40.6767 -85.7550 342° North 469 540 23,800 -540 Descending Chicago Center
08:18AM 40.7897 -85.8053 341° North 467 537 22,900 -1,080 Descending Chicago Center
08:19AM 40.9269 -85.8811 337° Northwest 433 498 21,600 -1,140 Descending Chicago Center
08:20AM 41.0031 -85.9842 314° West 392 451 20,600 -1,020 Descending Chicago Center
08:22AM 41.1467 -86.1972 312° West 386 444 18,500 -1,020 Descending Chicago Center
08:23AM 41.2172 -86.3019 312° West 381 438 17,500 -1,020 Descending Chicago Center
08:24AM 41.2850 -86.4058 311° West 373 429 16,500 -1,020 Descending Chicago Center
08:25AM 41.3522 -86.5053 312° West 364 419 15,400 -1,320 Descending Chicago Center
08:26AM 41.4275 -86.6178 312° West 336 387 13,800 -1,620 Descending Chicago Center
08:27AM 41.4811 -86.7006 311° West 303 349 12,100 -900 Descending Chicago Center
08:28AM 41.5442 -86.7786 317° Northwest 292 336 12,000 -60 Descending Chicago Center
08:29AM 41.6311 -86.7914 354° North 319 367 12,000  Level Chicago Center
08:30AM 41.7169 -86.8028 354° North 314 361 12,000  Level Chicago Center
08:31AM 41.8019 -86.8158 353° North 308 354 12,000 -120 Level Chicago Center
08:32AM 41.8764 -86.8492 342° North 295 339 11,800 -780 Descending Chicago Center
08:33AM 41.9036 -86.9472 290° West 290 334 10,400 -1,380 Descending Chicago Center
08:34AM 41.9317 -87.0614 288° West 272 313 9,000 -720 Descending Chicago Center
08:35AM 41.9522 -87.1539 287° West 263 303 9,000 -180 Level Chicago Center
08:36AM 41.9706 -87.2483 285° West 264 304 8,700 -780 Descending Chicago Center
08:37AM 41.9683 -87.3436 268° West 255 293 7,500 -900 Descending Chicago Center
08:38AM 41.9667 -87.4333 269° West 250 288 7,100 -660 Descending Chicago TRACON
08:39AM 41.9667 -87.5167 270° West 221 254 6,400 -1,080 Descending Chicago TRACON
08:40AM 41.9667 -87.6000 270° West 217 250 5,000 -1,200 Descending Chicago TRACON
08:41AM 41.9667 -87.6667 270° West 190 219 4,000 -1,080 Descending Chicago TRACON
08:42AM 41.9667 -87.7333 270° West 189 217 2,900 -1,080 Descending Chicago TRACON
08:43AM 41.9667 -87.8000 270° West 164 189 1,900 -900 Descending Chicago TRACON
08:44AM 41.9667 -87.8500 270° West 138 159 1,200 -720 Descending Chicago TRACON
08:46AM 41.9667 -87.9000 270° West  Level FlightAware Approximate